createdAt,value
2023-02-18T00:01:13.880Z,92.90
2023-02-18T00:06:24.648Z,92.80
2023-02-18T00:11:27.888Z,92.70
2023-02-18T00:16:32.419Z,92.50
2023-02-18T00:21:35.601Z,92.40
2023-02-18T00:26:37.729Z,92.20
2023-02-18T00:31:40.293Z,92.00
2023-02-18T00:36:42.751Z,92.30
2023-02-18T00:41:44.946Z,91.90
2023-02-18T00:46:48.318Z,91.90
2023-02-18T00:51:50.605Z,91.90
2023-02-18T00:56:52.458Z,92.00
2023-02-18T01:01:54.373Z,92.00
2023-02-18T01:06:56.262Z,92.10
2023-02-18T01:11:58.215Z,92.20
2023-02-18T01:17:00.069Z,92.20
2023-02-18T01:22:02.460Z,92.30
2023-02-18T01:27:04.848Z,92.40
2023-02-18T01:32:06.909Z,92.60
2023-02-18T01:37:08.813Z,92.70
2023-02-18T01:42:23.639Z,92.70
2023-02-18T01:47:25.513Z,92.90
2023-02-18T01:52:27.939Z,93.00
2023-02-18T01:57:35.635Z,93.00
2023-02-18T02:02:40.770Z,93.10
2023-02-18T02:07:43.490Z,93.10
2023-02-18T02:12:58.038Z,93.10
2023-02-18T02:18:33.559Z,93.10
2023-02-18T02:23:59.847Z,93.20
2023-02-18T02:29:01.635Z,93.30
2023-02-18T02:34:06.282Z,93.40
2023-02-18T02:39:24.598Z,93.50
2023-02-18T02:44:39.289Z,93.60
2023-02-18T02:50:25.924Z,93.70
2023-02-18T02:55:27.768Z,93.70
2023-02-18T03:00:57.498Z,93.70
2023-02-18T03:06:10.530Z,93.60
2023-02-18T03:11:14.300Z,93.60
2023-02-18T03:16:25.755Z,93.60
2023-02-18T03:21:41.841Z,93.60
2023-02-18T03:26:51.861Z,93.60
2023-02-18T03:31:56.212Z,93.60
2023-02-18T03:37:00.174Z,93.80
2023-02-18T03:42:02.070Z,94.00
2023-02-18T03:47:04.286Z,94.00
2023-02-18T03:52:06.694Z,94.10
2023-02-18T03:57:08.511Z,94.10
2023-02-18T04:02:10.382Z,94.20
2023-02-18T04:07:12.169Z,94.30
2023-02-18T04:12:16.659Z,94.20
2023-02-18T04:17:18.430Z,94.30
2023-02-18T04:22:20.238Z,94.30
2023-02-18T04:27:22.025Z,94.20
2023-02-18T04:32:23.962Z,94.30
2023-02-18T04:37:25.842Z,94.10
2023-02-18T04:42:27.627Z,94.10
2023-02-18T04:47:29.448Z,94.20
2023-02-18T04:52:34.180Z,94.30
2023-02-18T04:57:36.012Z,94.30
2023-02-18T05:02:37.837Z,94.30
2023-02-18T05:07:40.294Z,94.40
2023-02-18T05:12:42.346Z,94.50
2023-02-18T05:17:44.768Z,94.50
2023-02-18T05:22:46.566Z,94.60
2023-02-18T05:27:48.367Z,94.60
2023-02-18T05:32:50.191Z,94.60
2023-02-18T05:37:51.979Z,94.60
2023-02-18T05:42:53.776Z,94.60
2023-02-18T05:47:55.657Z,94.60
2023-02-18T05:52:57.455Z,94.70
2023-02-18T05:57:59.600Z,94.80
2023-02-18T06:03:01.474Z,94.80
2023-02-18T06:08:03.357Z,94.90
2023-02-18T06:13:05.213Z,95.00
2023-02-18T06:18:07.490Z,95.00
2023-02-18T06:23:11.595Z,94.80
2023-02-18T06:28:13.496Z,94.60
2023-02-18T06:33:15.349Z,94.50
2023-02-18T06:38:17.159Z,94.50
2023-02-18T06:43:20.182Z,94.50
2023-02-18T06:48:22.439Z,94.60
2023-02-18T06:53:24.255Z,94.60
2023-02-18T06:58:26.308Z,94.50
2023-02-18T07:03:29.441Z,94.50
2023-02-18T07:08:33.054Z,94.50
2023-02-18T07:13:34.901Z,94.40
2023-02-18T07:18:36.712Z,94.40
2023-02-18T07:23:38.570Z,94.20
2023-02-18T07:28:41.203Z,94.30
2023-02-18T07:33:43.136Z,94.10
2023-02-18T07:38:44.945Z,94.10
2023-02-18T07:43:47.049Z,93.60
2023-02-18T07:48:48.898Z,93.30
2023-02-18T07:53:50.903Z,93.00
2023-02-18T07:58:53.092Z,92.40
2023-02-18T08:03:54.959Z,92.40
2023-02-18T08:08:56.816Z,92.80
2023-02-18T08:13:58.693Z,92.10
2023-02-18T08:19:01.572Z,91.90
2023-02-18T08:24:03.619Z,91.70
2023-02-18T08:29:05.448Z,91.50
2023-02-18T08:34:09.312Z,91.50
2023-02-18T08:39:11.095Z,91.40
2023-02-18T08:44:12.894Z,91.50
2023-02-18T08:49:14.773Z,90.90
2023-02-18T08:54:17.781Z,90.70
2023-02-18T08:59:19.729Z,90.40
2023-02-18T09:04:21.936Z,90.30
2023-02-18T09:09:23.814Z,90.20
2023-02-18T09:14:25.767Z,90.00
2023-02-18T09:19:27.568Z,90.00
2023-02-18T09:24:29.360Z,89.60
2023-02-18T09:29:31.768Z,89.80
2023-02-18T09:34:33.966Z,89.20
2023-02-18T09:39:36.805Z,88.50
2023-02-18T09:44:46.342Z,87.80
2023-02-18T09:49:51.864Z,87.20
2023-02-18T09:54:53.844Z,88.10
2023-02-18T10:00:01.475Z,88.60
2023-02-18T10:05:03.500Z,90.00
2023-02-18T10:10:19.001Z,90.60
2023-02-18T10:15:23.527Z,90.90
2023-02-18T10:20:29.365Z,91.10
2023-02-18T10:25:31.928Z,91.50
2023-02-18T10:30:40.251Z,90.60
2023-02-18T10:36:07.758Z,90.10
2023-02-18T10:41:37.643Z,89.90
2023-02-18T10:46:48.631Z,88.50
2023-02-18T10:51:53.292Z,87.80
2023-02-18T10:57:00.050Z,88.10
2023-02-18T11:02:14.421Z,88.00
2023-02-18T11:07:20.085Z,86.20
2023-02-18T11:12:34.016Z,83.40
2023-02-18T11:17:37.887Z,84.20
2023-02-18T11:22:41.484Z,84.60
2023-02-18T11:27:56.028Z,82.50
2023-02-18T11:33:18.660Z,80.30
2023-02-18T11:38:27.143Z,81.50
2023-02-18T11:43:31.084Z,82.10
2023-02-18T11:48:32.991Z,82.90
2023-02-18T11:53:36.575Z,82.90
2023-02-18T11:58:41.340Z,79.90
2023-02-18T12:03:54.500Z,78.30
2023-02-18T12:09:35.093Z,80.10
2023-02-18T12:14:37.135Z,80.00
2023-02-18T12:20:13.430Z,78.90
2023-02-18T12:25:34.671Z,78.20
2023-02-18T12:31:01.607Z,79.20
2023-02-18T12:36:32.296Z,79.50
2023-02-18T12:42:15.702Z,79.50
2023-02-18T12:47:46.524Z,79.50
2023-02-18T12:53:12.397Z,80.80
2023-02-18T12:58:37.088Z,78.90
2023-02-18T13:04:01.018Z,77.90
2023-02-18T13:09:24.271Z,76.50
2023-02-18T13:14:32.751Z,76.00
2023-02-18T13:19:50.852Z,75.30
2023-02-18T13:24:54.684Z,75.40
2023-02-18T13:30:34.091Z,74.40
2023-02-18T13:35:58.743Z,74.30
2023-02-18T13:41:00.806Z,74.30
2023-02-18T13:46:18.782Z,73.70
2023-02-18T13:51:29.334Z,74.30
2023-02-18T13:56:33.494Z,73.40
2023-02-18T14:01:44.335Z,72.90
2023-02-18T14:07:23.543Z,71.30
2023-02-18T14:12:46.897Z,71.00
2023-02-18T14:18:13.685Z,70.50
2023-02-18T14:23:18.427Z,70.90
2023-02-18T14:28:35.400Z,71.00
2023-02-18T14:33:39.741Z,70.40
2023-02-18T14:39:02.943Z,70.00
2023-02-18T14:44:14.701Z,69.80
2023-02-18T14:49:50.289Z,70.10
2023-02-18T14:54:52.171Z,70.50
2023-02-18T14:59:58.952Z,69.00
2023-02-18T15:05:22.173Z,68.00
2023-02-18T15:10:29.780Z,67.90
2023-02-18T15:15:33.262Z,68.40
2023-02-18T15:20:35.545Z,68.60
2023-02-18T15:25:37.412Z,68.40
2023-02-18T15:30:39.344Z,68.80
2023-02-18T15:35:42.092Z,69.30
2023-02-18T15:40:46.471Z,69.00
2023-02-18T15:45:49.867Z,69.20
2023-02-18T15:50:56.893Z,69.50
2023-02-18T15:56:15.983Z,69.80
2023-02-18T16:01:31.444Z,70.10
2023-02-18T16:06:39.142Z,70.30
2023-02-18T16:11:47.362Z,71.00
2023-02-18T16:17:05.708Z,71.10
2023-02-18T16:22:31.304Z,71.20
2023-02-18T16:27:35.971Z,71.70
2023-02-18T16:32:37.771Z,72.10
2023-02-18T16:37:43.020Z,72.40
2023-02-18T16:42:45.864Z,72.60
2023-02-18T16:47:49.138Z,72.50
2023-02-18T16:52:51.071Z,72.50
2023-02-18T16:57:53.352Z,72.60
2023-02-18T17:02:58.739Z,72.90
2023-02-18T17:08:15.175Z,73.00
2023-02-18T17:13:20.136Z,73.20
2023-02-18T17:18:22.120Z,73.50
2023-02-18T17:23:24.417Z,73.80
2023-02-18T17:28:26.198Z,74.00
2023-02-18T17:33:28.163Z,74.00
2023-02-18T17:38:30.004Z,74.10
2023-02-18T17:43:32.800Z,74.40
2023-02-18T17:48:34.837Z,74.50
2023-02-18T17:53:39.031Z,75.10
2023-02-18T17:58:40.816Z,75.20
2023-02-18T18:03:46.077Z,75.50
2023-02-18T18:08:48.594Z,75.90
2023-02-18T18:14:42.911Z,76.40
2023-02-18T18:19:44.732Z,76.50
2023-02-18T18:24:46.512Z,77.10
2023-02-18T18:29:48.737Z,77.50
2023-02-18T18:34:50.570Z,77.80
2023-02-18T18:39:56.628Z,78.10
2023-02-18T18:44:58.462Z,78.50
2023-02-18T18:50:00.629Z,78.80
2023-02-18T18:55:02.978Z,79.40
2023-02-18T19:00:05.175Z,79.80
2023-02-18T19:05:12.014Z,80.00
2023-02-18T19:10:14.524Z,80.60
2023-02-18T19:15:22.241Z,81.00
2023-02-18T19:20:27.592Z,81.30
2023-02-18T19:25:29.504Z,81.70
2023-02-18T19:30:34.576Z,81.60
2023-02-18T19:35:39.426Z,82.20
2023-02-18T19:40:41.621Z,81.80
2023-02-18T19:45:45.292Z,81.70
2023-02-18T19:50:47.128Z,81.80
2023-02-18T19:55:57.273Z,81.70
2023-02-18T20:00:59.107Z,81.90
2023-02-18T20:06:00.891Z,82.10
2023-02-18T20:11:02.950Z,82.30
2023-02-18T20:16:09.004Z,82.50
2023-02-18T20:21:12.267Z,82.70
2023-02-18T20:26:34.290Z,83.30
2023-02-18T20:31:36.321Z,83.50
2023-02-18T20:36:38.328Z,83.90
2023-02-18T20:41:40.800Z,84.30
2023-02-18T20:46:44.608Z,84.60
2023-02-18T20:51:46.823Z,85.00
2023-02-18T20:56:49.814Z,85.20
2023-02-18T21:01:52.265Z,85.70
2023-02-18T21:06:54.285Z,85.90
2023-02-18T21:11:56.124Z,87.00
2023-02-18T21:16:58.086Z,87.50
2023-02-18T21:22:00.181Z,89.10
2023-02-18T21:27:06.222Z,89.40
2023-02-18T21:32:08.175Z,89.30
2023-02-18T21:37:10.090Z,90.10
2023-02-18T21:42:12.063Z,90.00
2023-02-18T21:47:13.852Z,90.20
2023-02-18T21:52:18.942Z,90.30
2023-02-18T21:57:24.124Z,90.40
2023-02-18T22:03:18.659Z,90.60
2023-02-18T22:08:21.241Z,90.80
2023-02-18T22:13:24.170Z,90.90
2023-02-18T22:18:25.979Z,91.10
2023-02-18T22:23:31.049Z,91.30
2023-02-18T22:28:33.328Z,91.70
2023-02-18T22:33:35.289Z,91.70
2023-02-18T22:38:38.574Z,91.90
2023-02-18T22:43:40.632Z,92.00
2023-02-18T22:48:42.580Z,92.40
2023-02-18T22:53:45.156Z,92.80
2023-02-18T22:58:48.269Z,93.10
2023-02-18T23:03:50.868Z,93.30
2023-02-18T23:08:54.103Z,93.50
2023-02-18T23:14:15.181Z,94.00
2023-02-18T23:19:16.952Z,94.10
2023-02-18T23:24:18.894Z,94.30
2023-02-18T23:29:46.334Z,94.40
2023-02-18T23:34:50.074Z,94.30
2023-02-18T23:39:51.914Z,94.60
2023-02-18T23:45:21.525Z,94.60
2023-02-18T23:50:23.435Z,94.50
2023-02-18T23:55:32.199Z,94.20
